sensor_id;sensor_type;location;lat;lon;timestamp;pressure;altitude;pressure_sealevel;temperature;humidity
59073;BME280;44859;51.934;15.554;2022-11-10T00:00:03;99716.04;;;9.47;87.20
59073;BME280;44859;51.934;15.554;2022-11-10T00:03:02;99717.30;;;9.47;87.64
59073;BME280;44859;51.934;15.554;2022-11-10T00:05:37;99719.55;;;9.47;87.54
59073;BME280;44859;51.934;15.554;2022-11-10T00:08:08;99723.05;;;9.47;87.24
59073;BME280;44859;51.934;15.554;2022-11-10T00:10:50;99722.04;;;9.46;87.42
59073;BME280;44859;51.934;15.554;2022-11-10T00:14:08;99722.27;;;9.45;87.51
59073;BME280;44859;51.934;15.554;2022-11-10T00:17:00;99729.68;;;9.44;87.68
59073;BME280;44859;51.934;15.554;2022-11-10T00:19:57;99731.31;;;9.43;88.19
59073;BME280;44859;51.934;15.554;2022-11-10T00:22:41;99735.65;;;9.44;88.17
59073;BME280;44859;51.934;15.554;2022-11-10T00:25:31;99731.42;;;9.44;88.08
59073;BME280;44859;51.934;15.554;2022-11-10T00:28:03;99734.58;;;9.45;88.36
59073;BME280;44859;51.934;15.554;2022-11-10T00:30:41;99734.48;;;9.46;88.56
59073;BME280;44859;51.934;15.554;2022-11-10T00:33:22;99734.09;;;9.47;88.89
59073;BME280;44859;51.934;15.554;2022-11-10T00:36:25;99736.83;;;9.49;88.90
59073;BME280;44859;51.934;15.554;2022-11-10T00:39:01;99734.91;;;9.48;88.66
59073;BME280;44859;51.934;15.554;2022-11-10T00:42:11;99737.52;;;9.49;88.89
59073;BME280;44859;51.934;15.554;2022-11-10T00:45:16;99736.83;;;9.49;89.22
59073;BME280;44859;51.934;15.554;2022-11-10T00:47:55;99737.55;;;9.48;88.85
59073;BME280;44859;51.934;15.554;2022-11-10T00:51:01;99739.89;;;9.47;89.26
59073;BME280;44859;51.934;15.554;2022-11-10T00:54:10;99747.15;;;9.46;89.23
59073;BME280;44859;51.934;15.554;2022-11-10T00:56:54;99748.77;;;9.44;89.74
59073;BME280;44859;51.934;15.554;2022-11-10T00:59:46;99750.27;;;9.42;90.03
59073;BME280;44859;51.934;15.554;2022-11-10T01:02:54;99755.92;;;9.41;89.78
59073;BME280;44859;51.934;15.554;2022-11-10T01:06:56;99753.92;;;9.39;90.27
59073;BME280;44859;51.934;15.554;2022-11-10T01:09:39;99758.20;;;9.37;90.02
59073;BME280;44859;51.934;15.554;2022-11-10T01:12:42;99762.27;;;9.36;90.42
59073;BME280;44859;51.934;15.554;2022-11-10T01:15:48;99762.99;;;9.36;90.48
59073;BME280;44859;51.934;15.554;2022-11-10T01:19:17;99767.31;;;9.37;90.40
59073;BME280;44859;51.934;15.554;2022-11-10T01:22:21;99760.20;;;9.40;90.85
59073;BME280;44859;51.934;15.554;2022-11-10T01:25:19;99766.02;;;9.39;90.97
59073;BME280;44859;51.934;15.554;2022-11-10T01:28:08;99771.83;;;9.38;90.85
59073;BME280;44859;51.934;15.554;2022-11-10T01:30:49;99777.31;;;9.37;90.92
59073;BME280;44859;51.934;15.554;2022-11-10T01:33:54;99776.71;;;9.34;91.09
59073;BME280;44859;51.934;15.554;2022-11-10T01:36:49;99781.07;;;9.35;91.49
59073;BME280;44859;51.934;15.554;2022-11-10T01:43:41;99784.54;;;9.36;91.55
59073;BME280;44859;51.934;15.554;2022-11-10T01:46:26;99781.89;;;9.37;92.00
59073;BME280;44859;51.934;15.554;2022-11-10T01:49:42;99782.52;;;9.38;91.83
59073;BME280;44859;51.934;15.554;2022-11-10T01:52:54;99787.01;;;9.40;92.06
59073;BME280;44859;51.934;15.554;2022-11-10T01:56:00;99787.02;;;9.40;92.02
59073;BME280;44859;51.934;15.554;2022-11-10T01:58:50;99786.89;;;9.39;91.89
59073;BME280;44859;51.934;15.554;2022-11-10T02:02:11;99787.63;;;9.38;92.42
59073;BME280;44859;51.934;15.554;2022-11-10T02:04:56;99793.89;;;9.39;92.88
59073;BME280;44859;51.934;15.554;2022-11-10T02:07:48;99794.55;;;9.40;92.73
59073;BME280;44859;51.934;15.554;2022-11-10T02:14:00;99797.68;;;9.40;92.84
59073;BME280;44859;51.934;15.554;2022-11-10T02:17:42;99799.77;;;9.41;92.94
59073;BME280;44859;51.934;15.554;2022-11-10T02:24:29;99803.04;;;9.42;93.45
59073;BME280;44859;51.934;15.554;2022-11-10T02:28:34;99805.11;;;9.43;93.35
59073;BME280;44859;51.934;15.554;2022-11-10T02:31:37;99806.20;;;9.42;93.48
59073;BME280;44859;51.934;15.554;2022-11-10T02:34:31;99819.42;;;9.40;93.69
59073;BME280;44859;51.934;15.554;2022-11-10T02:37:47;99819.89;;;9.37;93.72
59073;BME280;44859;51.934;15.554;2022-11-10T02:41:06;99818.73;;;9.35;93.74
59073;BME280;44859;51.934;15.554;2022-11-10T02:48:50;99825.77;;;9.27;93.71
59073;BME280;44859;51.934;15.554;2022-11-10T02:52:05;99832.31;;;9.25;93.87
59073;BME280;44859;51.934;15.554;2022-11-10T02:55:37;99831.67;;;9.24;94.28
59073;BME280;44859;51.934;15.554;2022-11-10T02:58:30;99839.29;;;9.22;94.20
59073;BME280;44859;51.934;15.554;2022-11-10T03:01:38;99839.09;;;9.18;94.53
59073;BME280;44859;51.934;15.554;2022-11-10T03:04:44;99839.91;;;9.15;94.27
59073;BME280;44859;51.934;15.554;2022-11-10T03:08:01;99843.88;;;9.13;94.67
59073;BME280;44859;51.934;15.554;2022-11-10T03:11:36;99845.83;;;9.12;95.14
59073;BME280;44859;51.934;15.554;2022-11-10T03:14:32;99849.94;;;9.10;95.21
59073;BME280;44859;51.934;15.554;2022-11-10T03:17:40;99855.30;;;9.08;94.99
59073;BME280;44859;51.934;15.554;2022-11-10T03:20:56;99866.17;;;9.03;94.96
59073;BME280;44859;51.934;15.554;2022-11-10T03:24:07;99869.50;;;8.98;94.86
59073;BME280;44859;51.934;15.554;2022-11-10T03:27:40;99871.88;;;8.96;95.27
59073;BME280;44859;51.934;15.554;2022-11-10T03:31:38;99879.70;;;8.94;95.49
59073;BME280;44859;51.934;15.554;2022-11-10T03:34:36;99887.99;;;8.92;95.28
59073;BME280;44859;51.934;15.554;2022-11-10T03:42:09;99895.55;;;8.87;95.77
59073;BME280;44859;51.934;15.554;2022-11-10T03:44:51;99893.98;;;8.87;95.88
59073;BME280;44859;51.934;15.554;2022-11-10T03:48:14;99898.78;;;8.85;96.04
59073;BME280;44859;51.934;15.554;2022-11-10T03:51:44;99903.07;;;8.83;96.17
59073;BME280;44859;51.934;15.554;2022-11-10T03:54:30;99910.05;;;8.84;96.60
59073;BME280;44859;51.934;15.554;2022-11-10T03:58:05;99912.34;;;8.83;97.39
59073;BME280;44859;51.934;15.554;2022-11-10T04:00:54;99912.23;;;8.81;97.03
59073;BME280;44859;51.934;15.554;2022-11-10T04:04:14;99916.48;;;8.80;97.09
59073;BME280;44859;51.934;15.554;2022-11-10T04:07:16;99916.37;;;8.78;97.14
59073;BME280;44859;51.934;15.554;2022-11-10T04:10:17;99919.72;;;8.78;97.09
59073;BME280;44859;51.934;15.554;2022-11-10T04:13:01;99916.23;;;8.77;97.43
59073;BME280;44859;51.934;15.554;2022-11-10T04:16:02;99921.73;;;8.76;97.38
59073;BME280;44859;51.934;15.554;2022-11-10T04:19:40;99926.31;;;8.75;97.76
59073;BME280;44859;51.934;15.554;2022-11-10T04:23:07;99925.89;;;8.73;97.11
59073;BME280;44859;51.934;15.554;2022-11-10T04:27:07;99938.49;;;8.73;97.67
59073;BME280;44859;51.934;15.554;2022-11-10T04:29:48;99939.66;;;8.70;97.44
59073;BME280;44859;51.934;15.554;2022-11-10T04:36:25;99944.19;;;8.66;97.41
59073;BME280;44859;51.934;15.554;2022-11-10T04:40:05;99951.42;;;8.64;97.49
59073;BME280;44859;51.934;15.554;2022-11-10T04:43:05;99953.31;;;8.60;97.88
59073;BME280;44859;51.934;15.554;2022-11-10T04:45:52;99956.35;;;8.58;97.59
59073;BME280;44859;51.934;15.554;2022-11-10T04:49:46;99962.98;;;8.54;97.29
59073;BME280;44859;51.934;15.554;2022-11-10T04:52:49;99964.34;;;8.51;97.69
59073;BME280;44859;51.934;15.554;2022-11-10T04:59:46;99964.27;;;8.53;97.47
59073;BME280;44859;51.934;15.554;2022-11-10T05:03:26;99970.94;;;8.52;97.83
59073;BME280;44859;51.934;15.554;2022-11-10T05:06:30;99974.70;;;8.50;97.63
59073;BME280;44859;51.934;15.554;2022-11-10T05:10:22;99977.61;;;8.47;97.60
59073;BME280;44859;51.934;15.554;2022-11-10T05:12:58;99981.84;;;8.46;97.45
59073;BME280;44859;51.934;15.554;2022-11-10T05:16:07;99982.46;;;8.43;97.84
59073;BME280;44859;51.934;15.554;2022-11-10T05:19:20;99995.31;;;8.41;97.55
59073;BME280;44859;51.934;15.554;2022-11-10T05:22:57;100000.66;;;8.38;97.73
59073;BME280;44859;51.934;15.554;2022-11-10T05:26:13;100001.17;;;8.38;97.99
59073;BME280;44859;51.934;15.554;2022-11-10T05:29:31;100006.56;;;8.40;97.77
59073;BME280;44859;51.934;15.554;2022-11-10T05:32:22;100009.04;;;8.39;97.62
59073;BME280;44859;51.934;15.554;2022-11-10T05:35:21;100011.92;;;8.37;97.47
59073;BME280;44859;51.934;15.554;2022-11-10T05:39:20;100019.52;;;8.40;97.55
59073;BME280;44859;51.934;15.554;2022-11-10T05:42:25;100021.84;;;8.43;97.21
59073;BME280;44859;51.934;15.554;2022-11-10T05:45:53;100028.21;;;8.47;97.34
59073;BME280;44859;51.934;15.554;2022-11-10T05:48:51;100031.00;;;8.52;97.63
59073;BME280;44859;51.934;15.554;2022-11-10T05:52:19;100036.41;;;8.67;97.23
59073;BME280;44859;51.934;15.554;2022-11-10T05:59:21;100054.77;;;8.77;96.69
59073;BME280;44859;51.934;15.554;2022-11-10T06:03:18;100056.14;;;8.82;96.25
59073;BME280;44859;51.934;15.554;2022-11-10T06:06:14;100063.52;;;8.87;96.23
59073;BME280;44859;51.934;15.554;2022-11-10T06:09:41;100069.11;;;8.91;95.62
59073;BME280;44859;51.934;15.554;2022-11-10T06:13:24;100073.69;;;9.00;94.94
59073;BME280;44859;51.934;15.554;2022-11-10T06:16:29;100081.73;;;9.06;94.56
59073;BME280;44859;51.934;15.554;2022-11-10T06:19:19;100083.84;;;9.10;94.40
59073;BME280;44859;51.934;15.554;2022-11-10T06:22:41;100091.34;;;9.10;93.94
59073;BME280;44859;51.934;15.554;2022-11-10T06:26:08;100097.35;;;9.14;93.18
59073;BME280;44859;51.934;15.554;2022-11-10T06:29:27;100107.08;;;9.16;93.25
59073;BME280;44859;51.934;15.554;2022-11-10T06:33:02;100113.97;;;9.15;92.84
59073;BME280;44859;51.934;15.554;2022-11-10T06:36:04;100122.24;;;9.14;92.59
59073;BME280;44859;51.934;15.554;2022-11-10T06:38:53;100131.48;;;9.15;92.79
59073;BME280;44859;51.934;15.554;2022-11-10T06:41:28;100134.65;;;9.19;92.51
59073;BME280;44859;51.934;15.554;2022-11-10T06:43:59;100142.55;;;9.24;92.04
59073;BME280;44859;51.934;15.554;2022-11-10T06:46:42;100144.02;;;9.27;92.10
59073;BME280;44859;51.934;15.554;2022-11-10T06:49:10;100150.73;;;9.30;91.87
59073;BME280;44859;51.934;15.554;2022-11-10T06:51:41;100151.98;;;9.34;91.61
59073;BME280;44859;51.934;15.554;2022-11-10T06:54:39;100160.36;;;9.40;91.34
59073;BME280;44859;51.934;15.554;2022-11-10T06:57:27;100168.31;;;9.42;91.06
59073;BME280;44859;51.934;15.554;2022-11-10T07:00:16;100170.09;;;9.46;91.06
59073;BME280;44859;51.934;15.554;2022-11-10T07:03:02;100178.05;;;9.49;90.90
59073;BME280;44859;51.934;15.554;2022-11-10T07:05:37;100182.09;;;9.53;91.03
59073;BME280;44859;51.934;15.554;2022-11-10T07:08:13;100186.37;;;9.56;90.56
59073;BME280;44859;51.934;15.554;2022-11-10T07:10:44;100195.55;;;9.59;90.11
59073;BME280;44859;51.934;15.554;2022-11-10T07:13:18;100195.11;;;9.61;90.13
59073;BME280;44859;51.934;15.554;2022-11-10T07:15:52;100202.05;;;9.63;89.88
59073;BME280;44859;51.934;15.554;2022-11-10T07:18:21;100203.61;;;9.64;90.23
59073;BME280;44859;51.934;15.554;2022-11-10T07:20:51;100208.48;;;9.64;89.63
59073;BME280;44859;51.934;15.554;2022-11-10T07:23:24;100216.64;;;9.67;89.41
59073;BME280;44859;51.934;15.554;2022-11-10T07:26:06;100219.68;;;9.70;89.42
59073;BME280;44859;51.934;15.554;2022-11-10T07:28:38;100228.73;;;9.72;89.31
59073;BME280;44859;51.934;15.554;2022-11-10T07:31:11;100233.63;;;9.72;88.58
59073;BME280;44859;51.934;15.554;2022-11-10T07:33:42;100235.68;;;9.74;88.78
59073;BME280;44859;51.934;15.554;2022-11-10T07:36:15;100242.48;;;9.75;88.57
59073;BME280;44859;51.934;15.554;2022-11-10T07:38:50;100242.40;;;9.77;88.49
59073;BME280;44859;51.934;15.554;2022-11-10T07:41:22;100247.09;;;9.78;88.02
59073;BME280;44859;51.934;15.554;2022-11-10T07:43:57;100255.84;;;9.79;88.17
59073;BME280;44859;51.934;15.554;2022-11-10T07:46:32;100258.31;;;9.78;87.90
59073;BME280;44859;51.934;15.554;2022-11-10T07:49:01;100261.46;;;9.79;87.99
59073;BME280;44859;51.934;15.554;2022-11-10T07:51:31;100265.09;;;9.80;87.43
59073;BME280;44859;51.934;15.554;2022-11-10T07:54:01;100270.29;;;9.81;87.51
59073;BME280;44859;51.934;15.554;2022-11-10T07:56:32;100277.92;;;9.84;87.53
59073;BME280;44859;51.934;15.554;2022-11-10T07:59:04;100277.41;;;9.88;87.28
59073;BME280;44859;51.934;15.554;2022-11-10T08:01:33;100276.39;;;9.92;87.12
59073;BME280;44859;51.934;15.554;2022-11-10T08:04:07;100281.67;;;9.96;86.92
59073;BME280;44859;51.934;15.554;2022-11-10T08:06:36;100289.81;;;9.98;86.79
59073;BME280;44859;51.934;15.554;2022-11-10T08:09:05;100292.73;;;10.00;87.04
59073;BME280;44859;51.934;15.554;2022-11-10T08:11:36;100299.84;;;10.02;86.44
59073;BME280;44859;51.934;15.554;2022-11-10T08:14:13;100302.42;;;10.03;86.88
59073;BME280;44859;51.934;15.554;2022-11-10T08:16:47;100307.31;;;10.04;86.28
59073;BME280;44859;51.934;15.554;2022-11-10T08:19:19;100310.14;;;10.04;86.38
59073;BME280;44859;51.934;15.554;2022-11-10T08:21:55;100312.97;;;10.03;86.45
59073;BME280;44859;51.934;15.554;2022-11-10T08:24:27;100317.62;;;10.01;86.39
59073;BME280;44859;51.934;15.554;2022-11-10T08:27:00;100319.64;;;9.99;86.26
59073;BME280;44859;51.934;15.554;2022-11-10T08:29:30;100324.08;;;9.97;85.98
59073;BME280;44859;51.934;15.554;2022-11-10T08:32:02;100331.30;;;9.97;85.96
59073;BME280;44859;51.934;15.554;2022-11-10T08:34:37;100337.55;;;9.99;86.02
59073;BME280;44859;51.934;15.554;2022-11-10T08:37:10;100345.55;;;10.00;86.09
59073;BME280;44859;51.934;15.554;2022-11-10T08:39:44;100348.12;;;10.02;85.76
59073;BME280;44859;51.934;15.554;2022-11-10T08:42:13;100352.35;;;10.05;85.78
59073;BME280;44859;51.934;15.554;2022-11-10T08:44:42;100355.65;;;10.12;85.94
59073;BME280;44859;51.934;15.554;2022-11-10T08:47:10;100361.04;;;10.18;85.82
59073;BME280;44859;51.934;15.554;2022-11-10T08:49:41;100369.07;;;10.23;85.40
59073;BME280;44859;51.934;15.554;2022-11-10T08:52:10;100372.35;;;10.25;85.26
59073;BME280;44859;51.934;15.554;2022-11-10T08:54:54;100379.93;;;10.23;84.92
59073;BME280;44859;51.934;15.554;2022-11-10T08:57:24;100383.23;;;10.20;85.24
59073;BME280;44859;51.934;15.554;2022-11-10T08:59:55;100382.96;;;10.13;84.94
59073;BME280;44859;51.934;15.554;2022-11-10T09:02:26;100382.76;;;10.04;85.09
59073;BME280;44859;51.934;15.554;2022-11-10T09:04:59;100391.02;;;10.00;85.05
59073;BME280;44859;51.934;15.554;2022-11-10T09:07:30;100388.60;;;9.99;85.07
59073;BME280;44859;51.934;15.554;2022-11-10T09:10:02;100394.98;;;10.02;85.28
59073;BME280;44859;51.934;15.554;2022-11-10T09:12:38;100393.97;;;10.10;85.41
59073;BME280;44859;51.934;15.554;2022-11-10T09:15:18;100409.41;;;10.20;84.92
59073;BME280;44859;51.934;15.554;2022-11-10T09:17:53;100410.04;;;10.26;84.25
59073;BME280;44859;51.934;15.554;2022-11-10T09:20:28;100418.95;;;10.32;84.01
59073;BME280;44859;51.934;15.554;2022-11-10T09:23:07;100421.78;;;10.41;83.96
59073;BME280;44859;51.934;15.554;2022-11-10T09:25:51;100426.98;;;10.48;83.87
59073;BME280;44859;51.934;15.554;2022-11-10T09:28:23;100427.61;;;10.54;83.23
59073;BME280;44859;51.934;15.554;2022-11-10T09:30:55;100428.58;;;10.61;83.18
59073;BME280;44859;51.934;15.554;2022-11-10T09:33:24;100425.65;;;10.64;83.02
59073;BME280;44859;51.934;15.554;2022-11-10T09:35:56;100426.05;;;10.67;82.80
59073;BME280;44859;51.934;15.554;2022-11-10T09:38:30;100430.52;;;10.70;82.44
59073;BME280;44859;51.934;15.554;2022-11-10T09:41:08;100429.41;;;10.71;82.68
59073;BME280;44859;51.934;15.554;2022-11-10T09:43:45;100440.13;;;10.72;82.19
59073;BME280;44859;51.934;15.554;2022-11-10T09:46:35;100441.83;;;10.77;82.51
59073;BME280;44859;51.934;15.554;2022-11-10T09:51:56;100446.76;;;10.95;81.57
59073;BME280;44859;51.934;15.554;2022-11-10T09:54:41;100449.10;;;11.03;81.22
59073;BME280;44859;51.934;15.554;2022-11-10T09:57:21;100448.35;;;11.17;81.21
59073;BME280;44859;51.934;15.554;2022-11-10T09:59:59;100444.70;;;11.28;80.85
59073;BME280;44859;51.934;15.554;2022-11-10T10:02:39;100444.56;;;11.32;80.87
59073;BME280;44859;51.934;15.554;2022-11-10T10:05:38;100439.66;;;11.36;80.90
59073;BME280;44859;51.934;15.554;2022-11-10T10:08:22;100442.48;;;11.40;80.25
59073;BME280;44859;51.934;15.554;2022-11-10T10:25:03;100455.58;;;11.80;78.17
59073;BME280;44859;51.934;15.554;2022-11-10T10:27:49;100455.02;;;11.80;78.03
59073;BME280;44859;51.934;15.554;2022-11-10T10:30:21;100459.58;;;11.68;77.52
59073;BME280;44859;51.934;15.554;2022-11-10T10:33:04;100456.63;;;11.55;77.06
59073;BME280;44859;51.934;15.554;2022-11-10T10:35:40;100456.30;;;11.46;77.54
59073;BME280;44859;51.934;15.554;2022-11-10T10:38:31;100455.21;;;11.42;77.70
59073;BME280;44859;51.934;15.554;2022-11-10T10:41:18;100457.17;;;11.50;77.97
59073;BME280;44859;51.934;15.554;2022-11-10T10:44:04;100445.96;;;11.66;78.04
59073;BME280;44859;51.934;15.554;2022-11-10T10:46:46;100446.67;;;11.78;77.75
59073;BME280;44859;51.934;15.554;2022-11-10T10:49:27;100448.59;;;11.91;77.58
59073;BME280;44859;51.934;15.554;2022-11-10T10:54:42;100447.89;;;11.86;75.75
59073;BME280;44859;51.934;15.554;2022-11-10T10:57:24;100454.02;;;11.92;75.94
59073;BME280;44859;51.934;15.554;2022-11-10T11:00:21;100448.98;;;11.98;76.05
59073;BME280;44859;51.934;15.554;2022-11-10T11:03:10;100454.19;;;12.04;75.95
59073;BME280;44859;51.934;15.554;2022-11-10T11:05:41;100457.06;;;12.15;75.47
59073;BME280;44859;51.934;15.554;2022-11-10T11:08:16;100458.19;;;12.25;75.39
59073;BME280;44859;51.934;15.554;2022-11-10T11:10:47;100460.21;;;12.35;74.67
59073;BME280;44859;51.934;15.554;2022-11-10T11:13:26;100459.19;;;12.34;73.43
59073;BME280;44859;51.934;15.554;2022-11-10T11:16:09;100459.96;;;12.29;73.14
59073;BME280;44859;51.934;15.554;2022-11-10T11:18:44;100459.55;;;12.22;73.07
59073;BME280;44859;51.934;15.554;2022-11-10T11:21:36;100462.10;;;12.16;72.87
59073;BME280;44859;51.934;15.554;2022-11-10T11:24:31;100464.21;;;12.12;73.28
59073;BME280;44859;51.934;15.554;2022-11-10T11:27:48;100470.55;;;12.13;73.45
59073;BME280;44859;51.934;15.554;2022-11-10T11:30:33;100468.20;;;12.14;73.14
59073;BME280;44859;51.934;15.554;2022-11-10T11:33:58;100470.92;;;12.12;73.31
59073;BME280;44859;51.934;15.554;2022-11-10T11:36:31;100470.42;;;12.11;73.39
59073;BME280;44859;51.934;15.554;2022-11-10T11:42:19;100472.72;;;12.19;72.01
59073;BME280;44859;51.934;15.554;2022-11-10T11:50:57;100484.82;;;12.20;72.57
59073;BME280;44859;51.934;15.554;2022-11-10T11:56:49;100490.45;;;12.25;72.79
59073;BME280;44859;51.934;15.554;2022-11-10T12:05:42;100504.23;;;12.27;72.51
59073;BME280;44859;51.934;15.554;2022-11-10T12:08:32;100504.02;;;12.28;72.00
59073;BME280;44859;51.934;15.554;2022-11-10T12:16:36;100503.52;;;12.39;71.94
59073;BME280;44859;51.934;15.554;2022-11-10T12:22:08;100498.23;;;12.55;71.32
59073;BME280;44859;51.934;15.554;2022-11-10T12:27:34;100497.54;;;12.70;71.67
59073;BME280;44859;51.934;15.554;2022-11-10T12:30:14;100503.36;;;12.74;71.44
59073;BME280;44859;51.934;15.554;2022-11-10T12:32:52;100505.36;;;12.69;71.08
59073;BME280;44859;51.934;15.554;2022-11-10T12:35:40;100509.81;;;12.64;71.27
59073;BME280;44859;51.934;15.554;2022-11-10T12:38:28;100510.81;;;12.57;71.07
59073;BME280;44859;51.934;15.554;2022-11-10T12:41:13;100521.69;;;12.43;70.84
59073;BME280;44859;51.934;15.554;2022-11-10T12:44:11;100523.62;;;12.35;70.91
59073;BME280;44859;51.934;15.554;2022-11-10T12:46:51;100527.31;;;12.23;70.46
59073;BME280;44859;51.934;15.554;2022-11-10T12:49:35;100529.98;;;12.14;70.56
59073;BME280;44859;51.934;15.554;2022-11-10T12:52:36;100537.21;;;12.06;70.54
59073;BME280;44859;51.934;15.554;2022-11-10T12:55:16;100539.39;;;11.96;70.77
59073;BME280;44859;51.934;15.554;2022-11-10T12:57:54;100533.74;;;11.87;71.03
59073;BME280;44859;51.934;15.554;2022-11-10T13:00:26;100530.10;;;11.82;70.92
59073;BME280;44859;51.934;15.554;2022-11-10T13:03:01;100531.17;;;11.81;71.15
59073;BME280;44859;51.934;15.554;2022-11-10T13:05:41;100538.56;;;11.81;71.02
59073;BME280;44859;51.934;15.554;2022-11-10T13:08:28;100544.04;;;11.85;70.79
59073;BME280;44859;51.934;15.554;2022-11-10T13:11:19;100548.95;;;11.94;70.86
59073;BME280;44859;51.934;15.554;2022-11-10T13:13:56;100552.30;;;12.02;70.69
59073;BME280;44859;51.934;15.554;2022-11-10T13:24:39;100550.34;;;12.52;69.81
59073;BME280;44859;51.934;15.554;2022-11-10T13:30:42;100565.14;;;12.64;69.45
59073;BME280;44859;51.934;15.554;2022-11-10T13:35:56;100568.49;;;12.48;69.60
59073;BME280;44859;51.934;15.554;2022-11-10T13:44:18;100577.14;;;12.91;68.72
59073;BME280;44859;51.934;15.554;2022-11-10T13:49:56;100583.77;;;12.65;68.83
59073;BME280;44859;51.934;15.554;2022-11-10T13:58:17;100598.00;;;12.78;68.26
59073;BME280;44859;51.934;15.554;2022-11-10T14:01:18;100601.81;;;12.71;68.64
59073;BME280;44859;51.934;15.554;2022-11-10T14:06:42;100607.50;;;12.97;68.72
59073;BME280;44859;51.934;15.554;2022-11-10T14:09:35;100607.30;;;12.75;68.80
59073;BME280;44859;51.934;15.554;2022-11-10T14:12:20;100614.17;;;12.42;68.89
59073;BME280;44859;51.934;15.554;2022-11-10T14:15:27;100619.41;;;12.23;69.19
59073;BME280;44859;51.934;15.554;2022-11-10T14:18:26;100623.02;;;12.00;69.78
59073;BME280;44859;51.934;15.554;2022-11-10T14:21:05;100629.62;;;11.83;70.13
59073;BME280;44859;51.934;15.554;2022-11-10T14:23:52;100635.10;;;11.74;70.80
59073;BME280;44859;51.934;15.554;2022-11-10T14:26:47;100635.09;;;11.66;71.07
59073;BME280;44859;51.934;15.554;2022-11-10T14:29:38;100642.45;;;11.58;71.15
59073;BME280;44859;51.934;15.554;2022-11-10T14:32:21;100649.73;;;11.51;71.83
59073;BME280;44859;51.934;15.554;2022-11-10T14:35:25;100650.33;;;11.45;71.74
59073;BME280;44859;51.934;15.554;2022-11-10T14:38:41;100652.77;;;11.41;72.01
59073;BME280;44859;51.934;15.554;2022-11-10T14:41:55;100647.98;;;11.33;72.23
59073;BME280;44859;51.934;15.554;2022-11-10T14:44:33;100647.95;;;11.29;72.53
59073;BME280;44859;51.934;15.554;2022-11-10T14:47:41;100649.67;;;11.25;72.66
59073;BME280;44859;51.934;15.554;2022-11-10T14:50:34;100659.80;;;11.22;72.90
59073;BME280;44859;51.934;15.554;2022-11-10T14:53:39;100666.61;;;11.19;72.98
59073;BME280;44859;51.934;15.554;2022-11-10T14:56:28;100673.73;;;11.17;73.37
59073;BME280;44859;51.934;15.554;2022-11-10T14:59:06;100685.85;;;11.12;73.39
59073;BME280;44859;51.934;15.554;2022-11-10T15:01:59;100695.89;;;11.07;73.65
59073;BME280;44859;51.934;15.554;2022-11-10T15:04:30;100697.39;;;11.04;73.76
59073;BME280;44859;51.934;15.554;2022-11-10T15:07:12;100702.58;;;11.02;73.80
59073;BME280;44859;51.934;15.554;2022-11-10T15:10:21;100707.25;;;11.04;74.06
59073;BME280;44859;51.934;15.554;2022-11-10T15:13:04;100715.14;;;11.05;74.19
59073;BME280;44859;51.934;15.554;2022-11-10T15:15:43;100713.10;;;11.02;74.10
59073;BME280;44859;51.934;15.554;2022-11-10T15:18:25;100713.77;;;10.98;74.24
59073;BME280;44859;51.934;15.554;2022-11-10T15:21:04;100716.98;;;10.92;74.35
59073;BME280;44859;51.934;15.554;2022-11-10T15:23:51;100727.22;;;10.86;74.34
59073;BME280;44859;51.934;15.554;2022-11-10T15:26:24;100736.37;;;10.80;74.54
59073;BME280;44859;51.934;15.554;2022-11-10T15:28:54;100745.08;;;10.77;74.87
59073;BME280;44859;51.934;15.554;2022-11-10T15:31:31;100744.27;;;10.75;75.10
59073;BME280;44859;51.934;15.554;2022-11-10T15:34:53;100751.16;;;10.74;75.03
59073;BME280;44859;51.934;15.554;2022-11-10T15:41:24;100756.31;;;10.77;75.08
59073;BME280;44859;51.934;15.554;2022-11-10T15:44:16;100751.67;;;10.79;75.55
59073;BME280;44859;51.934;15.554;2022-11-10T15:47:04;100751.09;;;10.82;75.30
59073;BME280;44859;51.934;15.554;2022-11-10T15:50:14;100760.67;;;10.84;75.53
59073;BME280;44859;51.934;15.554;2022-11-10T15:53:17;100762.25;;;10.84;75.50
59073;BME280;44859;51.934;15.554;2022-11-10T15:57:00;100766.35;;;10.82;75.42
59073;BME280;44859;51.934;15.554;2022-11-10T16:00:28;100762.66;;;10.82;75.35
59073;BME280;44859;51.934;15.554;2022-11-10T16:02:59;100766.82;;;10.84;75.17
59073;BME280;44859;51.934;15.554;2022-11-10T16:05:30;100771.86;;;10.85;75.45
59073;BME280;44859;51.934;15.554;2022-11-10T16:07:58;100774.73;;;10.84;75.27
59073;BME280;44859;51.934;15.554;2022-11-10T16:10:26;100781.34;;;10.81;75.47
59073;BME280;44859;51.934;15.554;2022-11-10T16:12:58;100784.40;;;10.78;75.49
59073;BME280;44859;51.934;15.554;2022-11-10T16:15:26;100786.61;;;10.75;75.57
59073;BME280;44859;51.934;15.554;2022-11-10T16:17:56;100796.17;;;10.72;75.52
59073;BME280;44859;51.934;15.554;2022-11-10T16:20:25;100793.92;;;10.71;75.99
59073;BME280;44859;51.934;15.554;2022-11-10T16:22:56;100796.08;;;10.70;75.65
59073;BME280;44859;51.934;15.554;2022-11-10T16:25:25;100794.52;;;10.70;75.67
59073;BME280;44859;51.934;15.554;2022-11-10T16:27:55;100795.47;;;10.67;75.94
59073;BME280;44859;51.934;15.554;2022-11-10T16:30:25;100794.33;;;10.65;76.08
59073;BME280;44859;51.934;15.554;2022-11-10T16:32:54;100802.87;;;10.61;76.04
59073;BME280;44859;51.934;15.554;2022-11-10T16:35:23;100806.48;;;10.59;76.26
59073;BME280;44859;51.934;15.554;2022-11-10T16:37:54;100804.15;;;10.55;76.21
59073;BME280;44859;51.934;15.554;2022-11-10T16:40:24;100805.55;;;10.50;76.23
59073;BME280;44859;51.934;15.554;2022-11-10T16:42:56;100804.84;;;10.44;76.46
59073;BME280;44859;51.934;15.554;2022-11-10T16:45:26;100801.13;;;10.39;76.65